Time;durP1;ratioP1;P1;durP2;ratioP2;P2;SDS_P1;SDS_P2;PMS_P1;PMS_P2;Temp;Humidity;BMP_temperature;BMP_pressure;BME280_temperature;BME280_humidity;BME280_pressure;Samples;Min_cycle;Max_cycle;Signal;HPM_P1;HPM_P2
2024/02/29 00:01:09;;;;;;;25.55;17.38;;;6.50;99.90;;;;;;5083813;28;20183;-66
2024/02/29 00:03:35;;;;;;;25.48;17.83;;;6.40;99.90;;;;;;5061125;28;20067;-66
2024/02/29 00:06:01;;;;;;;22.63;16.10;;;6.40;99.90;;;;;;5088325;28;20048;-66
2024/02/29 00:08:27;;;;;;;22.00;16.20;;;6.40;99.90;;;;;;5066721;28;20036;-66
2024/02/29 00:10:53;;;;;;;19.90;16.73;;;6.40;99.90;;;;;;5080339;28;20371;-66
2024/02/29 00:13:18;;;;;;;24.45;17.50;;;6.30;99.90;;;;;;5083587;28;20049;-66
2024/02/29 00:15:44;;;;;;;20.85;17.38;;;6.30;99.90;;;;;;5084740;28;20072;-66
2024/02/29 00:18:10;;;;;;;24.42;16.58;;;6.30;99.90;;;;;;5083342;28;20040;-66
2024/02/29 00:20:36;;;;;;;27.50;17.05;;;6.30;99.90;;;;;;5084388;28;20043;-66
2024/02/29 00:23:02;;;;;;;20.50;15.85;;;6.30;99.90;;;;;;5108479;27;20040;-66
2024/02/29 00:25:28;;;;;;;20.17;16.70;;;6.20;99.90;;;;;;5079635;28;20055;-66
2024/02/29 00:27:53;;;;;;;21.15;15.77;;;6.20;99.90;;;;;;5081939;28;20070;-66
2024/02/29 00:30:19;;;;;;;20.38;15.88;;;6.20;99.90;;;;;;5083694;28;20071;-66
2024/02/29 00:32:44;;;;;;;21.75;15.75;;;6.10;99.90;;;;;;5081111;28;20044;-66
2024/02/29 00:35:10;;;;;;;23.60;16.08;;;6.10;99.90;;;;;;5080451;28;20036;-66
2024/02/29 00:37:35;;;;;;;21.65;15.15;;;6.10;99.90;;;;;;5082660;28;20043;-66
2024/02/29 00:40:01;;;;;;;21.30;15.18;;;6.10;99.90;;;;;;5080677;28;20048;-66
2024/02/29 00:42:27;;;;;;;20.10;14.85;;;6.10;99.90;;;;;;5082529;28;20037;-66
2024/02/29 00:44:52;;;;;;;18.50;15.75;;;6.10;99.90;;;;;;5081254;28;20117;-66
2024/02/29 00:47:18;;;;;;;22.60;15.60;;;6.00;99.90;;;;;;5081912;28;20040;-66
2024/02/29 00:49:43;;;;;;;18.80;15.27;;;6.00;99.90;;;;;;5080781;28;20117;-66
2024/02/29 00:52:09;;;;;;;18.85;15.18;;;6.00;99.90;;;;;;5079670;28;20559;-66
2024/02/29 00:54:34;;;;;;;22.70;15.65;;;6.00;99.90;;;;;;5082367;28;20040;-66
2024/02/29 00:57:01;;;;;;;18.75;14.30;;;6.00;99.90;;;;;;5080644;28;20089;-66
2024/02/29 00:59:26;;;;;;;17.40;14.38;;;6.00;99.90;;;;;;5080971;28;20046;-66
2024/02/29 01:01:52;;;;;;;20.65;13.73;;;6.00;99.90;;;;;;5079187;28;20056;-66
2024/02/29 01:04:17;;;;;;;18.08;14.32;;;6.00;99.90;;;;;;5079281;28;20036;-66
2024/02/29 01:06:43;;;;;;;18.48;14.57;;;6.00;99.90;;;;;;5081463;28;20475;-66
2024/02/29 01:09:09;;;;;;;17.88;13.73;;;5.90;99.90;;;;;;5080632;28;20131;-66
2024/02/29 01:11:34;;;;;;;18.00;16.02;;;6.00;99.90;;;;;;5082779;28;20036;-66
2024/02/29 01:14:02;;;;;;;16.92;14.35;;;6.00;99.90;;;;;;5085068;28;20086;-66
2024/02/29 01:16:28;;;;;;;18.13;14.25;;;6.00;99.90;;;;;;5079520;28;20055;-66
2024/02/29 01:18:53;;;;;;;19.17;14.32;;;6.00;99.90;;;;;;5081511;28;20470;-66
2024/02/29 01:21:19;;;;;;;20.55;14.07;;;6.00;99.90;;;;;;5079290;28;20051;-66
2024/02/29 01:23:45;;;;;;;17.13;14.40;;;6.00;99.90;;;;;;5078313;28;20043;-66
2024/02/29 01:26:11;;;;;;;18.33;14.98;;;6.10;99.90;;;;;;5080300;28;20057;-66
2024/02/29 01:28:36;;;;;;;18.80;14.25;;;6.10;99.90;;;;;;5080817;28;20057;-66
2024/02/29 01:31:02;;;;;;;21.33;14.30;;;6.10;99.90;;;;;;5081305;28;20072;-66
2024/02/29 01:33:28;;;;;;;18.83;14.38;;;6.00;99.90;;;;;;5077539;28;20085;-66
2024/02/29 01:35:53;;;;;;;18.58;14.05;;;6.10;99.90;;;;;;5107398;28;20088;-66
2024/02/29 01:38:19;;;;;;;17.77;14.80;;;6.10;99.90;;;;;;5085963;28;20055;-66
2024/02/29 01:40:45;;;;;;;16.98;13.55;;;6.10;99.90;;;;;;5077641;28;20208;-66
2024/02/29 01:43:11;;;;;;;18.73;13.95;;;6.00;99.90;;;;;;5077750;28;20044;-66
2024/02/29 01:45:37;;;;;;;17.55;13.63;;;6.10;99.90;;;;;;5082205;28;20617;-66
2024/02/29 01:48:02;;;;;;;17.30;13.20;;;6.10;99.90;;;;;;5079506;28;20036;-66
2024/02/29 01:50:29;;;;;;;19.92;13.10;;;6.10;99.90;;;;;;5077639;28;20048;-66
2024/02/29 01:52:55;;;;;;;17.35;14.00;;;6.20;99.90;;;;;;5076058;28;20048;-66
2024/02/29 01:55:21;;;;;;;16.98;13.00;;;6.20;99.90;;;;;;5081959;28;20042;-66
2024/02/29 01:57:46;;;;;;;17.75;13.43;;;6.10;99.90;;;;;;5079509;28;20059;-66
2024/02/29 02:00:13;;;;;;;18.35;13.98;;;6.20;99.90;;;;;;5081855;28;20048;-66
2024/02/29 02:02:39;;;;;;;18.17;14.30;;;6.10;99.90;;;;;;5108299;27;20044;-66
2024/02/29 02:05:06;;;;;;;16.02;12.82;;;6.20;99.90;;;;;;5077584;28;20032;-66
2024/02/29 02:07:35;;;;;;;15.48;13.18;;;6.20;99.90;;;;;;5079994;28;20039;-66
2024/02/29 02:10:01;;;;;;;17.73;12.95;;;6.20;99.90;;;;;;5077664;28;20085;-66
2024/02/29 02:12:27;;;;;;;18.35;13.77;;;6.20;99.90;;;;;;5084858;28;20083;-66
2024/02/29 02:14:52;;;;;;;17.00;12.82;;;6.20;99.90;;;;;;5079697;28;20044;-66
2024/02/29 02:17:18;;;;;;;17.20;13.40;;;6.20;99.90;;;;;;5081288;28;20050;-66
2024/02/29 02:19:44;;;;;;;19.40;13.68;;;6.30;99.90;;;;;;5107716;28;20044;-66
2024/02/29 02:22:10;;;;;;;14.38;12.63;;;6.20;99.90;;;;;;5062849;28;20051;-66
2024/02/29 02:24:36;;;;;;;17.58;12.95;;;6.30;99.90;;;;;;5077084;28;20062;-66
2024/02/29 02:27:02;;;;;;;20.90;13.35;;;6.30;99.90;;;;;;5082391;28;20036;-66
2024/02/29 02:29:27;;;;;;;18.80;13.43;;;6.30;99.90;;;;;;5069410;28;20028;-66
2024/02/29 02:31:56;;;;;;;16.33;12.85;;;6.40;99.90;;;;;;5083336;28;20089;-66
2024/02/29 02:34:22;;;;;;;14.07;12.10;;;6.40;99.90;;;;;;5084448;28;20032;-66
2024/02/29 02:36:47;;;;;;;16.98;12.63;;;6.40;99.90;;;;;;5112821;27;20473;-66
2024/02/29 02:39:14;;;;;;;14.93;12.93;;;6.40;99.90;;;;;;5083597;28;20491;-66
2024/02/29 02:41:41;;;;;;;17.15;12.55;;;6.40;99.90;;;;;;5112929;27;20131;-66
2024/02/29 02:44:06;;;;;;;16.95;12.65;;;6.40;99.90;;;;;;5080321;28;20051;-66
2024/02/29 02:46:32;;;;;;;14.82;13.10;;;6.40;99.90;;;;;;5080327;28;20040;-66
2024/02/29 02:48:58;;;;;;;11.98;10.77;;;6.40;99.90;;;;;;5081593;28;20040;-66
2024/02/29 02:51:27;;;;;;;15.45;11.60;;;6.40;99.90;;;;;;5079027;28;20040;-66
2024/02/29 02:53:52;;;;;;;16.33;11.85;;;6.40;99.90;;;;;;5111864;27;20119;-66
2024/02/29 02:56:18;;;;;;;14.40;10.85;;;6.40;99.90;;;;;;5083426;28;20111;-66
2024/02/29 02:58:44;;;;;;;11.50;10.20;;;6.50;99.90;;;;;;5080861;28;20090;-66
2024/02/29 03:01:09;;;;;;;12.18;10.32;;;6.40;99.90;;;;;;5085479;28;20036;-66
2024/02/29 03:03:35;;;;;;;13.75;10.70;;;6.50;99.90;;;;;;5093703;28;20100;-66
2024/02/29 03:06:00;;;;;;;15.93;10.40;;;6.50;99.90;;;;;;5083131;28;20047;-66
2024/02/29 03:08:26;;;;;;;12.93;9.00;;;6.50;99.90;;;;;;5081160;28;20119;-66
2024/02/29 03:10:51;;;;;;;14.18;10.57;;;6.50;99.90;;;;;;5083883;28;20032;-66
2024/02/29 03:13:17;;;;;;;10.18;9.02;;;6.50;99.90;;;;;;5090369;28;20087;-66
2024/02/29 03:15:43;;;;;;;15.48;9.90;;;6.40;99.90;;;;;;5080343;28;20075;-66
2024/02/29 03:18:08;;;;;;;13.85;10.35;;;6.50;99.90;;;;;;5083607;28;20589;-66
2024/02/29 03:20:34;;;;;;;14.50;9.68;;;6.50;99.90;;;;;;5084107;28;20032;-66
2024/02/29 03:22:59;;;;;;;11.68;9.32;;;6.40;99.90;;;;;;5081047;28;20044;-66
2024/02/29 03:25:25;;;;;;;13.50;9.90;;;6.40;99.90;;;;;;5086096;28;20028;-66
2024/02/29 03:27:51;;;;;;;14.70;9.98;;;6.50;99.90;;;;;;5081870;28;20044;-66
2024/02/29 03:30:17;;;;;;;14.30;9.73;;;6.40;99.90;;;;;;5079223;28;20385;-66
2024/02/29 03:32:43;;;;;;;13.07;9.95;;;6.50;99.90;;;;;;5085649;28;20043;-66
2024/02/29 03:35:09;;;;;;;11.93;8.85;;;6.50;99.90;;;;;;5080541;28;20047;-66
2024/02/29 03:37:35;;;;;;;11.68;9.15;;;6.50;99.90;;;;;;5089286;28;20031;-66
2024/02/29 03:40:01;;;;;;;10.93;8.90;;;6.40;99.90;;;;;;5080058;28;20052;-66
2024/02/29 03:42:26;;;;;;;13.60;9.02;;;6.50;99.90;;;;;;5086166;28;20044;-66
2024/02/29 03:44:52;;;;;;;15.57;9.75;;;6.50;99.90;;;;;;5083700;28;20478;-66
2024/02/29 03:47:18;;;;;;;12.68;9.52;;;6.50;99.90;;;;;;5081733;28;20102;-66
2024/02/29 03:49:43;;;;;;;17.33;9.65;;;6.50;99.90;;;;;;5078299;28;20032;-66
2024/02/29 03:52:10;;;;;;;12.52;10.00;;;6.40;99.90;;;;;;5083126;28;20032;-66
2024/02/29 03:54:35;;;;;;;14.35;10.65;;;6.40;99.90;;;;;;5085614;28;20036;-66
2024/02/29 03:57:01;;;;;;;15.35;10.02;;;6.40;99.90;;;;;;5083190;28;20048;-66
2024/02/29 03:59:26;;;;;;;14.35;10.05;;;6.40;99.90;;;;;;5079162;28;20040;-66
2024/02/29 04:01:52;;;;;;;14.48;10.20;;;6.30;99.90;;;;;;5084012;28;20067;-66
2024/02/29 04:04:19;;;;;;;13.60;11.13;;;6.30;99.90;;;;;;5085853;28;20040;-66
2024/02/29 04:06:45;;;;;;;14.23;11.73;;;6.20;99.90;;;;;;5085610;28;20043;-66
2024/02/29 04:09:12;;;;;;;17.98;11.95;;;6.30;99.90;;;;;;5111364;27;20074;-66
2024/02/29 04:11:38;;;;;;;17.38;11.60;;;6.20;99.90;;;;;;5086109;28;20097;-66
2024/02/29 04:14:04;;;;;;;16.55;11.45;;;6.20;99.90;;;;;;5082578;28;20086;-66
2024/02/29 04:16:36;;;;;;;16.73;11.73;;;6.20;99.90;;;;;;5080659;28;20044;-66
2024/02/29 04:19:03;;;;;;;17.23;12.38;;;6.20;99.90;;;;;;5077873;28;20039;-66
2024/02/29 04:21:30;;;;;;;19.70;13.45;;;6.20;99.90;;;;;;5081389;28;20111;-66
2024/02/29 04:23:55;;;;;;;17.08;12.40;;;6.10;99.90;;;;;;5111128;27;20298;-66
2024/02/29 04:26:23;;;;;;;15.07;12.23;;;6.10;99.90;;;;;;5080919;28;20444;-66
2024/02/29 04:28:49;;;;;;;19.38;12.75;;;6.10;99.90;;;;;;5085869;28;20043;-66
2024/02/29 04:31:15;;;;;;;18.42;13.02;;;6.10;99.90;;;;;;5082910;28;20504;-66
2024/02/29 04:33:40;;;;;;;20.15;12.68;;;6.10;99.90;;;;;;5080520;28;20043;-66
2024/02/29 04:36:07;;;;;;;18.33;13.25;;;6.10;99.90;;;;;;5082241;28;20038;-66
2024/02/29 04:38:32;;;;;;;18.33;12.07;;;6.10;99.90;;;;;;5080716;28;20134;-66
2024/02/29 04:40:58;;;;;;;19.58;13.60;;;6.10;99.90;;;;;;5080731;28;20075;-67
2024/02/29 04:43:24;;;;;;;20.98;12.55;;;6.10;99.90;;;;;;5083539;28;20089;-66
2024/02/29 04:45:49;;;;;;;19.63;13.30;;;6.00;99.90;;;;;;5080018;28;20048;-66
2024/02/29 04:48:15;;;;;;;18.33;13.50;;;6.10;99.90;;;;;;5080603;28;20566;-66
2024/02/29 04:50:41;;;;;;;17.38;13.10;;;6.00;99.90;;;;;;5081652;28;20036;-66
2024/02/29 04:53:06;;;;;;;21.02;13.48;;;6.10;99.90;;;;;;5078409;28;20393;-66
2024/02/29 04:55:34;;;;;;;19.13;11.73;;;6.10;99.90;;;;;;5081459;28;20046;-66
2024/02/29 04:57:59;;;;;;;17.77;12.73;;;6.00;99.90;;;;;;5081737;28;20060;-66
2024/02/29 05:00:25;;;;;;;22.80;13.65;;;6.10;99.90;;;;;;5080005;28;20048;-66
2024/02/29 05:02:51;;;;;;;17.38;11.70;;;6.10;99.90;;;;;;5078894;28;20119;-66
2024/02/29 05:05:16;;;;;;;17.00;11.38;;;6.10;99.90;;;;;;5080289;28;20096;-66
2024/02/29 05:07:43;;;;;;;17.08;11.88;;;6.00;99.90;;;;;;5081514;28;20440;-66
2024/02/29 05:10:09;;;;;;;19.17;12.73;;;6.00;99.90;;;;;;5077386;28;20541;-66
2024/02/29 05:12:35;;;;;;;16.42;11.43;;;6.10;99.90;;;;;;5081866;28;20219;-66
2024/02/29 05:15:01;;;;;;;19.88;12.60;;;6.00;99.90;;;;;;5082486;28;20047;-66
2024/02/29 05:17:26;;;;;;;21.73;11.38;;;6.00;99.90;;;;;;5080449;28;20055;-66
2024/02/29 05:19:52;;;;;;;17.15;11.82;;;6.00;99.90;;;;;;5076248;28;20055;-66
2024/02/29 05:22:18;;;;;;;15.15;10.57;;;6.10;99.90;;;;;;5077428;28;20561;-66
2024/02/29 05:24:44;;;;;;;15.57;10.95;;;6.10;99.90;;;;;;5080933;28;20036;-66
2024/02/29 05:27:09;;;;;;;12.50;10.60;;;6.10;99.90;;;;;;5077032;28;20136;-66
2024/02/29 05:29:35;;;;;;;15.13;10.23;;;6.10;99.90;;;;;;5080042;28;20047;-66
2024/02/29 05:32:01;;;;;;;12.77;9.80;;;6.20;99.90;;;;;;5082820;28;20032;-66
2024/02/29 05:34:26;;;;;;;15.10;10.70;;;6.30;99.90;;;;;;5079644;28;20523;-66
2024/02/29 05:36:52;;;;;;;12.02;9.80;;;6.20;99.90;;;;;;5066076;28;20040;-66
2024/02/29 05:39:18;;;;;;;13.27;9.85;;;6.30;99.90;;;;;;5081047;28;20055;-66
2024/02/29 05:41:43;;;;;;;13.88;10.75;;;6.30;99.90;;;;;;5075940;28;21093;-66
2024/02/29 05:44:09;;;;;;;17.45;11.77;;;6.30;99.90;;;;;;5075221;28;20036;-66
2024/02/29 05:46:35;;;;;;;20.25;11.32;;;6.30;99.90;;;;;;5080844;28;20494;-66
2024/02/29 05:49:00;;;;;;;13.55;10.52;;;6.30;99.90;;;;;;5107281;27;20040;-66
2024/02/29 05:51:26;;;;;;;15.90;10.70;;;6.30;99.90;;;;;;5105506;28;20043;-67
2024/02/29 05:53:52;;;;;;;16.05;10.93;;;6.30;99.90;;;;;;5107687;27;20036;-66
2024/02/29 05:56:17;;;;;;;15.52;10.50;;;6.30;99.90;;;;;;5078474;28;20039;-66
2024/02/29 05:58:43;;;;;;;16.02;10.32;;;6.20;99.90;;;;;;5077976;28;20044;-66
2024/02/29 06:01:10;;;;;;;17.70;11.95;;;6.20;99.90;;;;;;5084010;28;20028;-66
2024/02/29 06:03:37;;;;;;;17.58;12.05;;;6.30;99.90;;;;;;5083646;28;20041;-66
2024/02/29 06:06:04;;;;;;;14.75;12.02;;;6.20;99.90;;;;;;5085849;28;20044;-66
2024/02/29 06:08:30;;;;;;;17.40;12.25;;;6.20;99.90;;;;;;5087534;28;20040;-66
2024/02/29 06:10:55;;;;;;;15.77;11.15;;;6.20;99.90;;;;;;5082772;28;20101;-66
2024/02/29 06:13:21;;;;;;;20.45;12.63;;;6.20;99.90;;;;;;5083909;28;20046;-66
2024/02/29 06:15:47;;;;;;;18.45;11.82;;;6.20;99.90;;;;;;5088496;28;20119;-67
2024/02/29 06:18:13;;;;;;;17.60;12.10;;;6.20;99.90;;;;;;5082648;28;20040;-66
2024/02/29 06:20:39;;;;;;;17.23;11.63;;;6.20;99.90;;;;;;5085650;28;20102;-66
2024/02/29 06:23:05;;;;;;;17.13;12.80;;;6.20;99.90;;;;;;5084787;28;20040;-66
2024/02/29 06:25:31;;;;;;;20.15;13.77;;;6.30;99.90;;;;;;5083707;28;20124;-66
2024/02/29 06:27:57;;;;;;;24.02;13.30;;;6.20;99.90;;;;;;5080648;28;20048;-66
2024/02/29 06:30:31;;;;;;;20.63;12.85;;;6.20;99.90;;;;;;5096128;28;20105;-66
2024/02/29 06:32:58;;;;;;;19.10;13.15;;;6.20;99.90;;;;;;5082603;28;20048;-67
2024/02/29 06:35:23;;;;;;;19.67;13.02;;;6.20;99.90;;;;;;5081510;28;20425;-66
2024/02/29 06:37:49;;;;;;;25.50;14.13;;;6.20;99.90;;;;;;5082259;28;20044;-66
2024/02/29 06:40:15;;;;;;;19.92;13.85;;;6.20;99.90;;;;;;5079244;28;20073;-66
2024/02/29 06:42:40;;;;;;;20.80;13.95;;;6.20;99.90;;;;;;5113427;27;20047;-66
2024/02/29 06:45:07;;;;;;;17.13;12.82;;;6.20;99.90;;;;;;5081032;28;20514;-66
2024/02/29 06:47:33;;;;;;;19.67;13.48;;;6.20;99.90;;;;;;5080601;28;20033;-66
2024/02/29 06:50:00;;;;;;;20.45;12.77;;;6.20;99.90;;;;;;5078819;28;20094;-66
2024/02/29 06:52:26;;;;;;;21.95;12.93;;;6.20;99.90;;;;;;5082583;28;20571;-66
2024/02/29 06:54:52;;;;;;;18.85;13.40;;;6.20;99.90;;;;;;5068097;28;20037;-66
2024/02/29 06:57:18;;;;;;;20.02;13.32;;;6.30;99.90;;;;;;5082314;28;20050;-66
2024/02/29 06:59:43;;;;;;;17.45;12.75;;;6.30;99.90;;;;;;5084384;28;20067;-66
2024/02/29 07:02:09;;;;;;;19.40;12.57;;;6.20;99.90;;;;;;5084239;28;20040;-66
2024/02/29 07:04:35;;;;;;;19.65;12.90;;;6.20;99.90;;;;;;5078225;28;20060;-66
2024/02/29 07:07:00;;;;;;;20.90;13.85;;;6.20;99.90;;;;;;5109425;27;20044;-66
2024/02/29 07:09:26;;;;;;;19.95;14.30;;;6.30;99.90;;;;;;5079214;28;20072;-66
2024/02/29 07:11:52;;;;;;;20.38;13.18;;;6.30;99.90;;;;;;5078350;28;20101;-66
2024/02/29 07:14:18;;;;;;;19.63;13.32;;;6.30;99.90;;;;;;5080572;28;20040;-66
2024/02/29 07:16:43;;;;;;;23.30;14.88;;;6.30;99.90;;;;;;5081127;28;20028;-66
2024/02/29 07:19:09;;;;;;;20.15;13.82;;;6.40;99.90;;;;;;5080246;28;20348;-66
2024/02/29 07:21:35;;;;;;;20.08;13.02;;;6.40;99.90;;;;;;5082210;28;20047;-66
2024/02/29 07:24:02;;;;;;;16.65;12.82;;;6.40;99.90;;;;;;5080919;28;20036;-66
2024/02/29 07:26:28;;;;;;;19.88;12.23;;;6.40;99.90;;;;;;5083314;28;20036;-66
2024/02/29 07:28:54;;;;;;;19.33;13.00;;;6.40;99.90;;;;;;5078240;28;20490;-66
2024/02/29 07:31:20;;;;;;;18.60;13.07;;;6.40;99.90;;;;;;5079537;28;20161;-66
2024/02/29 07:33:46;;;;;;;23.08;13.80;;;6.40;99.90;;;;;;5081853;28;20143;-66
2024/02/29 07:36:12;;;;;;;18.33;12.48;;;6.50;99.90;;;;;;5081120;28;20041;-66
2024/02/29 07:38:38;;;;;;;17.10;12.30;;;6.50;99.90;;;;;;5079348;28;20139;-66
2024/02/29 07:41:04;;;;;;;15.73;11.93;;;6.50;99.90;;;;;;5081778;28;20840;-65
2024/02/29 07:43:29;;;;;;;16.55;13.63;;;6.50;99.90;;;;;;5080925;28;20036;-66
2024/02/29 07:45:55;;;;;;;19.63;12.32;;;6.60;99.90;;;;;;5080286;28;20052;-66
2024/02/29 07:48:20;;;;;;;20.67;13.10;;;6.60;99.90;;;;;;5081367;28;20491;-67
2024/02/29 07:50:46;;;;;;;18.90;14.18;;;6.60;99.90;;;;;;5078933;28;20457;-66
2024/02/29 07:53:12;;;;;;;15.73;12.07;;;6.60;99.90;;;;;;5074675;28;20056;-66
2024/02/29 07:55:37;;;;;;;15.55;12.63;;;6.60;99.90;;;;;;5080444;28;20038;-66
2024/02/29 07:58:05;;;;;;;16.75;12.68;;;6.60;99.90;;;;;;5079464;28;20139;-66
2024/02/29 08:00:31;;;;;;;20.33;12.63;;;6.60;99.90;;;;;;5078942;28;20067;-66
2024/02/29 08:02:56;;;;;;;18.70;12.45;;;6.70;99.90;;;;;;5078677;28;20063;-66
2024/02/29 08:05:22;;;;;;;16.33;11.30;;;6.70;99.90;;;;;;5080614;28;20044;-66
2024/02/29 08:07:48;;;;;;;17.05;11.90;;;6.70;99.90;;;;;;5079821;28;20185;-67
2024/02/29 08:10:15;;;;;;;16.58;12.35;;;6.80;99.90;;;;;;5079647;28;20040;-66
2024/02/29 08:12:43;;;;;;;15.57;12.35;;;6.70;99.90;;;;;;5078574;28;20096;-66
2024/02/29 08:15:09;;;;;;;20.42;13.40;;;6.70;99.90;;;;;;5079922;28;20055;-66
2024/02/29 08:17:34;;;;;;;20.65;13.20;;;6.80;99.90;;;;;;5079483;28;20036;-67
2024/02/29 08:20:00;;;;;;;17.98;11.98;;;6.80;99.90;;;;;;5074097;28;20049;-66
2024/02/29 08:22:26;;;;;;;19.23;12.48;;;6.80;99.90;;;;;;5069198;28;20098;-66
2024/02/29 08:24:51;;;;;;;19.42;12.85;;;6.80;99.90;;;;;;5106227;27;20513;-66
2024/02/29 08:27:17;;;;;;;19.17;12.65;;;6.80;99.90;;;;;;5107739;27;20051;-66
2024/02/29 08:29:42;;;;;;;16.77;11.80;;;6.80;99.90;;;;;;5074626;28;20618;-67
2024/02/29 08:32:08;;;;;;;18.73;12.13;;;6.80;99.90;;;;;;5074465;28;20040;-66
2024/02/29 08:34:34;;;;;;;16.35;11.95;;;6.90;99.90;;;;;;5076252;28;20035;-66
2024/02/29 08:36:59;;;;;;;17.80;12.57;;;6.80;99.90;;;;;;5075244;28;20051;-66
2024/02/29 08:39:25;;;;;;;19.77;12.02;;;6.90;99.90;;;;;;5075908;28;20040;-66
2024/02/29 08:41:51;;;;;;;17.65;11.65;;;6.90;99.90;;;;;;5075087;28;20313;-66
2024/02/29 08:44:17;;;;;;;15.73;11.35;;;6.90;99.90;;;;;;5078259;28;20481;-67
2024/02/29 08:46:43;;;;;;;16.17;12.40;;;6.90;99.90;;;;;;5073701;28;20143;-66
2024/02/29 08:49:09;;;;;;;16.45;11.93;;;6.90;99.90;;;;;;5076960;28;20193;-66
2024/02/29 08:51:35;;;;;;;18.23;12.68;;;6.90;99.90;;;;;;5078499;28;20393;-66
2024/02/29 08:54:02;;;;;;;21.02;13.13;;;6.90;99.90;;;;;;5076675;28;20354;-66
2024/02/29 08:56:28;;;;;;;15.90;12.52;;;6.90;99.90;;;;;;5081236;28;20043;-66
2024/02/29 08:58:54;;;;;;;16.85;12.25;;;6.90;99.90;;;;;;5073196;28;20036;-66
2024/02/29 09:01:20;;;;;;;15.88;11.23;;;6.90;99.90;;;;;;5075508;28;20050;-66
2024/02/29 09:03:45;;;;;;;19.33;13.05;;;6.90;99.90;;;;;;5105925;27;20044;-67
2024/02/29 09:06:13;;;;;;;20.73;12.82;;;7.00;99.90;;;;;;5079305;28;20089;-66
2024/02/29 09:08:39;;;;;;;18.75;12.93;;;7.00;99.90;;;;;;5074578;28;20083;-66
2024/02/29 09:11:05;;;;;;;16.80;11.40;;;7.00;99.90;;;;;;5077475;28;20032;-66
2024/02/29 09:13:30;;;;;;;23.77;13.00;;;7.00;99.90;;;;;;5075902;28;20039;-66
2024/02/29 09:15:56;;;;;;;17.83;11.20;;;7.00;99.90;;;;;;5072181;28;20119;-66
2024/02/29 09:18:22;;;;;;;17.65;11.82;;;7.00;99.90;;;;;;5074314;28;20243;-66
2024/02/29 09:20:48;;;;;;;14.50;10.95;;;7.00;99.90;;;;;;5071453;28;20044;-66
2024/02/29 09:23:14;;;;;;;12.82;10.18;;;7.00;99.90;;;;;;5109316;27;20083;-66
2024/02/29 09:25:39;;;;;;;14.10;10.02;;;7.00;99.90;;;;;;5074022;28;20044;-66
2024/02/29 09:28:05;;;;;;;15.48;10.38;;;7.10;99.90;;;;;;5075094;28;20036;-66
2024/02/29 09:30:31;;;;;;;13.40;9.63;;;7.10;99.90;;;;;;5078872;28;20040;-66
2024/02/29 09:32:56;;;;;;;13.45;9.80;;;7.10;99.90;;;;;;5075260;28;20040;-66
2024/02/29 09:35:22;;;;;;;18.92;10.82;;;7.10;99.90;;;;;;5075382;28;20044;-66
2024/02/29 09:37:48;;;;;;;13.05;9.43;;;7.10;99.90;;;;;;5078591;28;20044;-66
2024/02/29 09:40:15;;;;;;;11.27;9.00;;;7.10;99.90;;;;;;5075255;28;20473;-66
2024/02/29 09:42:44;;;;;;;13.93;9.52;;;7.20;99.90;;;;;;5078083;28;20161;-66
2024/02/29 09:45:13;;;;;;;13.43;10.00;;;7.20;99.90;;;;;;5074831;28;20119;-66
2024/02/29 09:47:41;;;;;;;14.75;10.27;;;7.20;99.90;;;;;;5074489;28;20039;-66
2024/02/29 09:50:11;;;;;;;13.18;8.75;;;7.20;99.90;;;;;;5078689;28;20046;-66
2024/02/29 09:52:40;;;;;;;14.70;9.93;;;7.30;99.90;;;;;;5076560;28;20096;-66
2024/02/29 09:55:12;;;;;;;13.25;9.43;;;7.30;99.90;;;;;;5081157;28;20127;-66
2024/02/29 09:57:39;;;;;;;13.75;10.52;;;7.30;99.90;;;;;;5080107;28;20127;-66
2024/02/29 10:00:08;;;;;;;14.20;9.63;;;7.30;99.90;;;;;;5073973;28;20567;-67
2024/02/29 10:02:35;;;;;;;12.63;8.90;;;7.30;99.90;;;;;;5057745;28;20051;-67
2024/02/29 10:05:00;;;;;;;13.98;9.43;;;7.30;99.90;;;;;;5073202;28;20159;-67
2024/02/29 10:07:26;;;;;;;12.05;9.38;;;7.40;99.90;;;;;;5076826;28;20185;-66
2024/02/29 10:09:53;;;;;;;12.85;9.07;;;7.40;99.90;;;;;;5075065;28;20509;-66
2024/02/29 10:12:19;;;;;;;15.85;10.60;;;7.40;99.90;;;;;;5073715;28;20576;-66
2024/02/29 10:14:45;;;;;;;11.77;9.43;;;7.40;99.90;;;;;;5076346;28;20107;-67
2024/02/29 10:17:11;;;;;;;13.75;9.90;;;7.40;99.90;;;;;;5076129;28;20059;-66
2024/02/29 10:19:40;;;;;;;15.45;9.45;;;7.50;99.90;;;;;;5069143;28;20041;-66
2024/02/29 10:22:06;;;;;;;13.93;9.55;;;7.50;99.90;;;;;;5079544;28;20127;-66
2024/02/29 10:24:32;;;;;;;11.02;8.88;;;7.50;99.90;;;;;;5075173;28;20040;-66
2024/02/29 10:27:02;;;;;;;12.00;8.73;;;7.50;99.90;;;;;;5079332;28;20059;-67
2024/02/29 10:29:29;;;;;;;12.45;10.35;;;7.50;99.90;;;;;;5074355;28;20036;-67
2024/02/29 10:32:01;;;;;;;12.75;9.88;;;7.50;99.90;;;;;;5077192;28;20420;-67
2024/02/29 10:34:27;;;;;;;16.40;10.50;;;7.50;99.90;;;;;;5077714;28;20506;-66
2024/02/29 10:36:53;;;;;;;14.63;9.95;;;7.50;99.90;;;;;;5072860;28;20071;-67
2024/02/29 10:39:19;;;;;;;15.32;10.52;;;7.50;99.90;;;;;;5078515;28;20040;-67
2024/02/29 10:41:49;;;;;;;16.35;11.00;;;7.50;99.90;;;;;;5075669;28;20039;-67
2024/02/29 10:44:19;;;;;;;13.63;10.40;;;7.50;99.90;;;;;;5075736;28;20460;-67
2024/02/29 10:46:49;;;;;;;15.48;10.25;;;7.50;99.90;;;;;;5075916;28;20120;-67
2024/02/29 10:49:27;;;;;;;12.90;10.10;;;7.50;99.90;;;;;;5078967;28;20383;-66
2024/02/29 10:52:09;;;;;;;14.07;10.75;;;7.50;99.90;;;;;;5066216;28;20115;-67
2024/02/29 10:55:10;;;;;;;16.10;11.73;;;7.60;99.90;;;;;;5061503;28;20066;-66
2024/02/29 10:57:44;;;;;;;16.38;10.75;;;7.60;99.90;;;;;;5080112;28;20510;-66
2024/02/29 11:00:14;;;;;;;15.40;11.20;;;7.60;99.90;;;;;;5081351;28;21243;-67
2024/02/29 11:02:41;;;;;;;16.50;11.23;;;7.60;99.90;;;;;;5077746;28;20044;-66
2024/02/29 11:05:07;;;;;;;14.30;11.13;;;7.60;99.90;;;;;;5079147;28;20051;-66
2024/02/29 11:07:34;;;;;;;14.70;11.13;;;7.60;99.90;;;;;;5079648;28;20090;-66
2024/02/29 11:10:04;;;;;;;14.65;10.80;;;7.60;99.90;;;;;;5077608;28;20178;-66
2024/02/29 11:12:29;;;;;;;17.02;11.13;;;7.60;99.90;;;;;;5080345;28;20050;-66
2024/02/29 11:14:58;;;;;;;14.10;11.43;;;7.60;99.90;;;;;;5081107;28;20486;-66
2024/02/29 11:17:29;;;;;;;16.00;11.18;;;7.60;99.90;;;;;;5080271;28;20315;-66
2024/02/29 11:19:59;;;;;;;17.42;12.00;;;7.70;99.90;;;;;;5076785;28;20092;-66
2024/02/29 11:22:35;;;;;;;15.90;11.32;;;7.80;99.90;;;;;;5077838;28;20040;-66
2024/02/29 11:25:09;;;;;;;12.38;10.80;;;7.80;99.90;;;;;;5108619;27;20102;-66
2024/02/29 11:27:36;;;;;;;13.38;10.50;;;7.90;99.90;;;;;;5079389;28;20040;-66
2024/02/29 11:30:03;;;;;;;14.20;10.75;;;7.90;99.90;;;;;;5077401;28;20044;-66
2024/02/29 11:32:31;;;;;;;12.43;10.55;;;8.00;99.90;;;;;;5077595;28;20078;-66
2024/02/29 11:34:58;;;;;;;11.63;10.43;;;8.00;99.90;;;;;;5073943;28;20040;-66
2024/02/29 11:37:25;;;;;;;13.05;10.02;;;8.10;99.90;;;;;;5075136;28;20266;-66
2024/02/29 11:39:59;;;;;;;13.80;9.95;;;8.10;99.90;;;;;;5059063;28;20059;-66
2024/02/29 11:42:26;;;;;;;13.15;9.77;;;8.10;99.90;;;;;;5076959;28;20043;-66
2024/02/29 11:44:52;;;;;;;14.35;10.40;;;8.20;99.90;;;;;;5082569;28;20044;-66
2024/02/29 11:47:17;;;;;;;13.45;9.57;;;8.20;99.90;;;;;;5078110;28;20749;-66
2024/02/29 11:49:43;;;;;;;11.32;9.95;;;8.30;99.90;;;;;;5074345;28;20040;-66
2024/02/29 11:52:10;;;;;;;12.10;9.43;;;8.30;99.90;;;;;;5075689;28;20636;-66
2024/02/29 11:54:36;;;;;;;13.02;9.40;;;8.40;99.90;;;;;;5077509;28;20509;-66
2024/02/29 11:57:01;;;;;;;13.65;10.02;;;8.30;99.90;;;;;;5078237;28;20036;-66
2024/02/29 11:59:27;;;;;;;13.90;10.10;;;8.40;99.90;;;;;;5073758;28;20036;-66
2024/02/29 12:01:53;;;;;;;12.13;9.15;;;8.40;99.90;;;;;;5080213;28;20043;-66
2024/02/29 12:04:20;;;;;;;11.98;9.60;;;8.30;99.90;;;;;;5077426;28;20032;-66
2024/02/29 12:06:46;;;;;;;10.95;8.93;;;8.40;99.90;;;;;;5079423;28;20040;-66
2024/02/29 12:09:13;;;;;;;11.07;8.85;;;8.30;99.90;;;;;;5074356;28;20059;-66
2024/02/29 12:11:44;;;;;;;16.83;9.52;;;8.40;99.90;;;;;;5077767;28;20078;-66
2024/02/29 12:14:11;;;;;;;13.52;8.68;;;8.30;99.90;;;;;;5082010;28;20447;-66
2024/02/29 12:16:38;;;;;;;10.82;8.85;;;8.30;99.90;;;;;;5081069;28;20052;-66
2024/02/29 12:19:05;;;;;;;11.88;9.43;;;8.30;99.90;;;;;;5083600;28;20423;-66
2024/02/29 12:21:35;;;;;;;13.85;9.40;;;8.30;99.90;;;;;;5081835;28;20089;-66
2024/02/29 12:24:01;;;;;;;11.60;10.40;;;8.30;99.90;;;;;;5075647;28;20074;-66
2024/02/29 12:26:27;;;;;;;12.43;10.13;;;8.30;99.90;;;;;;5076586;28;20127;-66
2024/02/29 12:28:53;;;;;;;13.48;10.23;;;8.30;99.90;;;;;;5106563;27;20051;-66
2024/02/29 12:31:18;;;;;;;12.63;10.77;;;8.20;99.90;;;;;;5079469;28;20040;-66
2024/02/29 12:33:46;;;;;;;12.40;10.02;;;8.20;99.90;;;;;;5079549;28;20119;-66